Time;durP1;ratioP1;P1;durP2;ratioP2;P2;SDS_P1;SDS_P2;PMS_P1;PMS_P2;Temp;Humidity;BMP_temperature;BMP_pressure;BME280_temperature;BME280_humidity;BME280_pressure;Samples;Min_cycle;Max_cycle;Signal;HPM_P1;HPM_P2
2023/09/19 00:02:18;;;;;;;9.63;4.00;;;15.90;99.90;;;;;;5032999;28;20234;-73
2023/09/19 00:04:44;;;;;;;4.53;3.80;;;15.90;99.90;;;;;;5032464;28;20214;-73
2023/09/19 00:07:10;;;;;;;10.17;3.77;;;15.90;99.90;;;;;;5033732;28;20194;-73
2023/09/19 00:09:37;;;;;;;8.30;4.60;;;15.90;99.90;;;;;;5033703;28;20188;-73
2023/09/19 00:12:07;;;;;;;6.13;3.77;;;15.90;99.90;;;;;;5033585;28;20203;-74
2023/09/19 00:14:36;;;;;;;10.80;4.63;;;15.90;99.90;;;;;;5029864;28;20191;-73
2023/09/19 00:17:05;;;;;;;5.97;3.90;;;15.90;99.90;;;;;;5033451;28;20180;-72
2023/09/19 00:19:32;;;;;;;6.73;4.27;;;15.80;99.90;;;;;;5032116;28;20183;-72
2023/09/19 00:21:58;;;;;;;9.83;3.93;;;15.80;99.90;;;;;;5033629;28;20733;-73
2023/09/19 00:24:24;;;;;;;5.60;4.20;;;15.80;99.90;;;;;;5033517;28;20215;-73
2023/09/19 00:26:49;;;;;;;9.07;3.73;;;15.80;99.90;;;;;;5033687;28;20198;-72
2023/09/19 00:29:16;;;;;;;10.30;4.20;;;15.80;99.90;;;;;;5033092;28;20176;-73
2023/09/19 00:31:44;;;;;;;8.30;4.53;;;15.80;99.90;;;;;;5033376;28;20567;-72
2023/09/19 00:34:10;;;;;;;5.20;4.53;;;15.80;99.90;;;;;;5033572;28;20187;-73
2023/09/19 00:36:39;;;;;;;7.30;4.03;;;15.90;99.90;;;;;;5033365;28;20233;-73
2023/09/19 00:39:08;;;;;;;7.27;4.20;;;15.90;99.90;;;;;;5032739;28;20187;-73
2023/09/19 00:41:35;;;;;;;7.27;4.10;;;16.00;99.90;;;;;;5033138;28;20291;-73
2023/09/19 00:44:03;;;;;;;5.03;3.63;;;16.10;99.90;;;;;;5032768;28;20203;-73
2023/09/19 00:46:29;;;;;;;8.77;3.37;;;16.20;99.90;;;;;;5031933;28;20548;-73
2023/09/19 00:48:56;;;;;;;4.20;3.80;;;16.20;99.90;;;;;;5033081;28;20704;-74
2023/09/19 00:51:22;;;;;;;6.40;3.23;;;16.20;99.90;;;;;;5031457;28;20199;-71
2023/09/19 00:53:49;;;;;;;7.90;3.60;;;16.30;99.90;;;;;;5033045;28;20219;-72
2023/09/19 00:56:18;;;;;;;7.07;3.70;;;16.30;99.90;;;;;;5032976;28;20191;-72
2023/09/19 00:58:44;;;;;;;4.70;3.63;;;16.30;99.90;;;;;;5032757;28;20572;-72
2023/09/19 01:01:11;;;;;;;8.33;3.73;;;16.30;99.90;;;;;;5032459;28;20736;-72
2023/09/19 01:03:37;;;;;;;11.20;4.33;;;16.30;99.90;;;;;;5031444;28;20211;-72
2023/09/19 01:06:03;;;;;;;7.63;3.43;;;16.30;99.90;;;;;;5032700;28;20183;-72
2023/09/19 01:08:29;;;;;;;7.47;4.07;;;16.40;99.90;;;;;;5033092;28;20655;-72
2023/09/19 01:11:28;;;;;;;6.97;3.53;;;16.40;99.90;;;;;;5032239;28;20176;-73
2023/09/19 01:14:30;;;;;;;7.10;4.17;;;16.40;99.90;;;;;;5032376;28;20675;-72
2023/09/19 01:17:25;;;;;;;6.77;3.63;;;16.40;99.90;;;;;;5034805;28;20305;-73
2023/09/19 01:20:15;;;;;;;7.47;3.47;;;16.40;99.90;;;;;;5032322;28;20213;-72
2023/09/19 01:23:13;;;;;;;4.40;3.57;;;16.40;99.90;;;;;;5032572;28;20586;-73
2023/09/19 01:25:41;;;;;;;7.87;3.90;;;16.30;99.90;;;;;;5032600;28;20207;-71
2023/09/19 01:28:24;;;;;;;6.77;4.13;;;16.30;99.90;;;;;;5032353;28;20549;-71
2023/09/19 01:30:57;;;;;;;9.97;3.70;;;16.30;99.90;;;;;;5031815;28;20179;-72
2023/09/19 01:33:23;;;;;;;6.63;3.80;;;16.20;99.90;;;;;;5030746;28;20199;-73
2023/09/19 01:35:50;;;;;;;9.30;3.57;;;16.30;99.90;;;;;;5032011;28;20592;-73
2023/09/19 01:38:16;;;;;;;7.80;4.20;;;16.30;99.90;;;;;;5032256;28;20211;-73
2023/09/19 01:40:43;;;;;;;6.83;4.27;;;16.30;99.90;;;;;;5031769;28;20183;-72
2023/09/19 01:43:30;;;;;;;6.33;3.70;;;16.30;99.90;;;;;;5031684;28;20203;-73
2023/09/19 01:46:19;;;;;;;7.17;3.90;;;16.40;99.90;;;;;;5031441;28;20229;-73
2023/09/19 01:49:02;;;;;;;6.23;3.30;;;16.40;99.90;;;;;;5035169;28;20180;-72
2023/09/19 01:51:51;;;;;;;6.47;3.23;;;16.40;99.90;;;;;;5030558;28;20195;-72
2023/09/19 01:54:24;;;;;;;7.13;3.53;;;16.30;99.90;;;;;;5030356;28;20179;-72
2023/09/19 01:57:09;;;;;;;9.43;4.10;;;16.30;99.90;;;;;;5031592;28;20651;-72
2023/09/19 01:59:52;;;;;;;10.30;3.70;;;16.20;99.90;;;;;;5031497;28;20711;-73
2023/09/19 02:02:22;;;;;;;6.43;3.47;;;16.10;99.90;;;;;;5031628;28;20210;-73
2023/09/19 02:04:49;;;;;;;8.73;3.83;;;16.10;99.90;;;;;;5031464;28;20298;-72
2023/09/19 02:07:15;;;;;;;7.43;3.87;;;16.00;99.90;;;;;;5030036;28;20305;-73
2023/09/19 02:09:42;;;;;;;8.13;3.97;;;16.00;99.90;;;;;;5031207;28;20179;-71
2023/09/19 02:12:09;;;;;;;6.97;3.80;;;16.00;99.90;;;;;;5030205;28;20623;-73
2023/09/19 02:14:35;;;;;;;5.87;3.27;;;16.00;99.90;;;;;;5031315;28;20187;-71
2023/09/19 02:17:05;;;;;;;6.67;3.67;;;16.00;99.90;;;;;;5030402;28;20639;-71
2023/09/19 02:19:32;;;;;;;9.97;3.87;;;15.90;99.90;;;;;;5031463;28;20643;-73
2023/09/19 02:21:58;;;;;;;5.40;3.60;;;15.90;99.90;;;;;;5031340;28;20199;-72
2023/09/19 02:24:24;;;;;;;5.77;3.60;;;15.90;99.90;;;;;;5031424;28;20577;-72
2023/09/19 02:26:49;;;;;;;7.43;3.70;;;15.90;99.90;;;;;;5031544;28;20694;-72
2023/09/19 02:29:15;;;;;;;6.23;3.70;;;15.80;99.90;;;;;;5031214;28;20266;-71
2023/09/19 02:31:41;;;;;;;8.17;4.10;;;15.80;99.90;;;;;;5031448;28;20564;-72
2023/09/19 02:34:06;;;;;;;7.53;3.80;;;15.80;99.90;;;;;;5031294;28;20647;-72
2023/09/19 02:36:32;;;;;;;8.93;4.70;;;15.80;99.90;;;;;;5031647;28;20184;-72
2023/09/19 02:38:58;;;;;;;3.83;3.20;;;15.80;99.90;;;;;;5031376;28;20701;-72
2023/09/19 02:41:23;;;;;;;8.83;3.70;;;15.70;99.90;;;;;;5031198;28;20203;-72
2023/09/19 02:43:49;;;;;;;8.47;3.30;;;15.70;99.90;;;;;;5031152;28;20235;-72
2023/09/19 02:46:16;;;;;;;8.10;3.73;;;15.70;99.90;;;;;;5031327;28;20206;-71
2023/09/19 02:48:42;;;;;;;6.00;3.40;;;15.70;99.90;;;;;;5031332;28;20262;-71
2023/09/19 02:51:07;;;;;;;10.27;3.90;;;15.70;99.90;;;;;;5030759;28;20629;-71
2023/09/19 02:53:33;;;;;;;7.87;3.83;;;15.60;99.90;;;;;;5031198;28;20190;-72
2023/09/19 02:55:59;;;;;;;7.90;3.33;;;15.60;99.90;;;;;;5031163;28;20211;-71
2023/09/19 02:58:25;;;;;;;6.87;4.33;;;15.50;99.90;;;;;;5031379;28;20190;-71
2023/09/19 03:00:51;;;;;;;6.57;3.83;;;15.50;99.90;;;;;;5029651;28;20183;-73
2023/09/19 03:03:17;;;;;;;7.27;3.40;;;15.50;99.90;;;;;;5030813;28;20250;-71
2023/09/19 03:05:47;;;;;;;10.53;4.10;;;15.50;99.90;;;;;;5029923;28;20240;-72
2023/09/19 03:08:16;;;;;;;6.17;3.50;;;15.40;99.90;;;;;;5031000;28;20653;-72
2023/09/19 03:10:42;;;;;;;4.97;3.70;;;15.30;99.90;;;;;;5030814;28;20187;-71
2023/09/19 03:13:09;;;;;;;8.60;3.87;;;15.30;99.90;;;;;;5031050;28;20190;-71
2023/09/19 03:15:38;;;;;;;9.23;4.37;;;15.30;99.90;;;;;;5031124;28;20639;-71
2023/09/19 03:18:04;;;;;;;8.50;4.07;;;15.30;99.90;;;;;;5030880;28;20184;-72
2023/09/19 03:20:30;;;;;;;15.10;4.60;;;15.30;99.90;;;;;;5030759;28;20219;-72
2023/09/19 03:22:57;;;;;;;6.53;4.40;;;15.30;99.90;;;;;;5030920;28;20258;-73
2023/09/19 03:25:23;;;;;;;5.63;4.30;;;15.30;99.90;;;;;;5036314;28;20654;-72
2023/09/19 03:27:48;;;;;;;12.20;4.47;;;15.30;99.90;;;;;;5038183;28;20631;-70
2023/09/19 03:30:14;;;;;;;8.87;4.53;;;15.30;99.90;;;;;;5034344;28;20179;-72
2023/09/19 03:32:49;;;;;;;7.17;4.10;;;15.30;99.90;;;;;;5033341;28;20201;-72
2023/09/19 03:35:15;;;;;;;7.33;3.73;;;15.30;99.90;;;;;;5026714;28;20176;-72
2023/09/19 03:37:42;;;;;;;14.80;5.23;;;15.30;99.90;;;;;;5034583;28;20223;-72
2023/09/19 03:40:10;;;;;;;9.47;4.30;;;15.30;99.90;;;;;;5034311;28;20175;-72
2023/09/19 03:42:41;;;;;;;6.67;4.37;;;15.30;99.90;;;;;;5033037;28;20211;-72
2023/09/19 03:45:11;;;;;;;10.77;4.50;;;15.20;99.90;;;;;;5034245;28;20247;-72
2023/09/19 03:47:38;;;;;;;6.13;3.90;;;15.20;99.90;;;;;;5034533;28;20215;-72
2023/09/19 03:50:05;;;;;;;16.27;4.70;;;15.20;99.90;;;;;;5033951;28;20199;-72
2023/09/19 03:52:31;;;;;;;9.67;4.30;;;15.20;99.90;;;;;;5037793;28;20269;-73
2023/09/19 03:54:56;;;;;;;10.00;4.03;;;15.10;99.90;;;;;;5034181;28;20187;-72
2023/09/19 03:57:22;;;;;;;8.43;4.30;;;15.10;99.90;;;;;;5034059;28;20191;-72
2023/09/19 03:59:47;;;;;;;5.23;3.47;;;15.10;99.90;;;;;;5034089;28;20184;-73
2023/09/19 04:02:22;;;;;;;6.93;3.53;;;15.10;99.90;;;;;;5033996;28;20750;-72
2023/09/19 04:04:48;;;;;;;13.40;4.40;;;15.10;99.90;;;;;;5034143;28;20206;-73
2023/09/19 04:07:14;;;;;;;15.60;5.10;;;15.10;99.90;;;;;;5039179;28;20266;-71
2023/09/19 04:09:39;;;;;;;7.77;3.90;;;15.10;99.90;;;;;;5033817;28;20270;-74
2023/09/19 04:12:05;;;;;;;8.43;4.20;;;15.00;99.90;;;;;;5032459;28;20206;-72
2023/09/19 04:14:31;;;;;;;8.53;3.90;;;15.00;99.90;;;;;;5033872;28;20198;-71
2023/09/19 04:16:56;;;;;;;15.27;4.30;;;15.00;99.90;;;;;;5033780;28;20198;-72
2023/09/19 04:19:22;;;;;;;10.53;4.20;;;14.90;99.90;;;;;;5033519;28;20187;-71
2023/09/19 04:21:48;;;;;;;8.77;4.10;;;14.90;99.90;;;;;;5032462;28;20226;-72
2023/09/19 04:24:13;;;;;;;9.40;4.70;;;14.90;99.90;;;;;;5033555;28;20737;-74
2023/09/19 04:26:39;;;;;;;11.20;4.77;;;14.90;99.90;;;;;;5032565;28;20184;-72
2023/09/19 04:29:06;;;;;;;9.53;4.37;;;14.90;99.90;;;;;;5033222;28;20183;-73
2023/09/19 04:31:31;;;;;;;6.90;4.27;;;14.90;99.90;;;;;;5033414;28;20196;-73
2023/09/19 04:33:59;;;;;;;6.37;4.13;;;14.90;99.90;;;;;;5033418;28;20556;-73
2023/09/19 04:36:24;;;;;;;7.33;4.20;;;14.90;99.90;;;;;;5031961;28;20202;-72
2023/09/19 04:38:50;;;;;;;10.00;4.17;;;14.90;99.90;;;;;;5033456;28;20608;-72
2023/09/19 04:41:16;;;;;;;8.70;4.20;;;14.90;99.90;;;;;;5032851;28;20290;-72
2023/09/19 04:43:41;;;;;;;10.37;4.10;;;14.90;99.90;;;;;;5033301;28;20215;-71
2023/09/19 04:46:07;;;;;;;8.90;4.13;;;14.80;99.90;;;;;;5033348;28;20184;-73
2023/09/19 04:48:34;;;;;;;12.33;4.90;;;14.80;99.90;;;;;;5033690;28;20270;-73
2023/09/19 04:51:00;;;;;;;7.83;4.00;;;14.70;99.90;;;;;;5032980;28;20187;-74
2023/09/19 04:53:27;;;;;;;11.93;4.10;;;14.80;99.90;;;;;;5033276;28;20249;-73
2023/09/19 04:55:55;;;;;;;9.83;3.97;;;14.70;99.90;;;;;;5033093;28;20210;-74
2023/09/19 04:58:22;;;;;;;10.67;3.93;;;14.70;99.90;;;;;;5033568;28;20485;-71
2023/09/19 05:00:47;;;;;;;4.67;3.70;;;14.70;99.90;;;;;;5032127;28;20718;-73
2023/09/19 05:03:13;;;;;;;9.20;4.17;;;14.70;99.90;;;;;;5032748;28;20278;-73
2023/09/19 05:05:40;;;;;;;7.60;4.00;;;14.70;99.90;;;;;;5032656;28;20241;-73
2023/09/19 05:08:08;;;;;;;7.17;4.23;;;14.70;99.90;;;;;;5032503;28;20187;-73
2023/09/19 05:10:37;;;;;;;11.27;4.60;;;14.70;99.90;;;;;;5031453;28;20180;-72
2023/09/19 05:13:04;;;;;;;11.00;3.90;;;14.60;99.90;;;;;;5031138;28;20214;-75
2023/09/19 05:15:30;;;;;;;7.53;4.03;;;14.60;99.90;;;;;;5032662;28;20292;-73
2023/09/19 05:17:56;;;;;;;6.27;3.70;;;14.60;99.90;;;;;;5032388;28;20195;-73
2023/09/19 05:20:29;;;;;;;8.73;4.40;;;14.70;99.90;;;;;;5032286;28;20183;-72
2023/09/19 05:23:02;;;;;;;9.03;4.47;;;14.70;99.90;;;;;;5032273;28;20199;-72
2023/09/19 05:25:37;;;;;;;7.43;5.17;;;14.60;99.90;;;;;;5032498;28;20188;-74
2023/09/19 05:28:05;;;;;;;5.30;3.90;;;14.60;99.90;;;;;;5032315;28;20182;-73
2023/09/19 05:30:32;;;;;;;10.43;4.30;;;14.60;99.90;;;;;;5030837;28;20180;-74
2023/09/19 05:32:57;;;;;;;12.90;4.17;;;14.70;99.90;;;;;;5030725;28;20196;-73
2023/09/19 05:35:24;;;;;;;12.77;4.70;;;14.70;99.90;;;;;;5037382;28;20199;-75
2023/09/19 05:37:54;;;;;;;10.53;4.03;;;14.80;99.90;;;;;;5030973;28;20601;-73
2023/09/19 05:40:20;;;;;;;12.33;3.93;;;14.80;99.90;;;;;;5023887;28;20172;-73
2023/09/19 05:42:47;;;;;;;6.90;3.87;;;14.90;99.90;;;;;;5034475;28;20222;-71
2023/09/19 05:45:13;;;;;;;9.27;4.60;;;14.90;99.90;;;;;;5031863;28;20199;-71
2023/09/19 05:47:45;;;;;;;10.93;4.37;;;14.90;99.90;;;;;;5029546;28;20646;-72
2023/09/19 05:50:11;;;;;;;8.40;4.47;;;15.00;99.90;;;;;;5036521;28;20171;-72
2023/09/19 05:52:42;;;;;;;11.83;4.70;;;15.00;99.90;;;;;;5031712;28;20202;-75
2023/09/19 05:55:08;;;;;;;9.00;4.07;;;15.00;99.90;;;;;;5031516;28;20187;-73
2023/09/19 05:57:34;;;;;;;10.50;4.53;;;15.10;99.90;;;;;;5031481;28;20669;-72
2023/09/19 06:00:00;;;;;;;9.83;4.33;;;15.10;99.90;;;;;;5031301;28;20183;-73
2023/09/19 06:02:29;;;;;;;8.43;4.60;;;15.20;99.90;;;;;;5031539;28;20290;-74
2023/09/19 06:04:56;;;;;;;9.00;4.43;;;15.20;99.90;;;;;;5034656;28;20243;-73
2023/09/19 06:07:25;;;;;;;9.23;4.50;;;15.20;99.90;;;;;;5023234;28;20171;-73
2023/09/19 06:09:53;;;;;;;8.67;3.60;;;15.20;99.90;;;;;;5031298;28;20258;-71
2023/09/19 06:12:19;;;;;;;9.30;4.07;;;15.30;99.90;;;;;;5031231;28;20698;-72
2023/09/19 06:14:44;;;;;;;6.63;3.80;;;15.30;99.90;;;;;;5031394;28;20179;-72
2023/09/19 06:17:10;;;;;;;12.00;3.90;;;15.30;99.90;;;;;;5036040;28;20194;-72
2023/09/19 06:19:36;;;;;;;9.93;4.20;;;15.40;99.90;;;;;;5031023;28;20246;-73
2023/09/19 06:22:01;;;;;;;11.63;4.77;;;15.40;99.90;;;;;;5031309;28;20203;-73
2023/09/19 06:24:28;;;;;;;9.43;4.30;;;15.50;99.90;;;;;;5029767;28;20218;-71
2023/09/19 06:26:54;;;;;;;7.57;4.03;;;15.50;99.90;;;;;;5031228;28;20262;-72
2023/09/19 06:29:23;;;;;;;11.17;4.27;;;15.60;99.90;;;;;;5030646;28;20511;-72
2023/09/19 06:31:48;;;;;;;10.03;4.03;;;15.60;99.90;;;;;;5031404;28;20199;-75
2023/09/19 06:34:15;;;;;;;12.83;4.23;;;15.70;99.90;;;;;;5030826;28;20179;-74
2023/09/19 06:36:41;;;;;;;11.47;3.83;;;15.70;99.90;;;;;;5032153;28;20674;-72
2023/09/19 06:39:10;;;;;;;9.30;3.77;;;15.70;99.90;;;;;;5030613;28;20187;-72
2023/09/19 06:41:38;;;;;;;9.83;4.30;;;15.80;99.90;;;;;;5030863;28;20203;-72
2023/09/19 06:44:05;;;;;;;10.87;3.77;;;15.90;99.90;;;;;;5030750;28;20269;-71
2023/09/19 06:46:34;;;;;;;9.17;3.83;;;15.90;99.90;;;;;;5031128;28;20182;-72
2023/09/19 06:49:00;;;;;;;12.73;4.93;;;16.00;99.90;;;;;;5030897;28;20207;-71
2023/09/19 06:51:26;;;;;;;11.33;3.57;;;16.10;99.90;;;;;;5033524;28;20256;-72
2023/09/19 06:53:54;;;;;;;5.57;3.77;;;16.20;99.90;;;;;;5029652;28;20179;-72
2023/09/19 06:56:24;;;;;;;8.00;4.47;;;16.20;99.90;;;;;;5030622;28;20199;-71
2023/09/19 06:58:50;;;;;;;10.03;4.37;;;16.30;99.90;;;;;;5030763;28;20183;-71
2023/09/19 07:01:15;;;;;;;12.43;3.83;;;16.40;99.90;;;;;;5034291;28;20340;-72
2023/09/19 07:03:41;;;;;;;13.67;4.00;;;16.50;99.90;;;;;;5033341;28;20199;-73
2023/09/19 07:06:08;;;;;;;9.37;4.40;;;16.60;99.90;;;;;;5036355;28;20213;-72
2023/09/19 07:08:34;;;;;;;7.53;3.83;;;16.60;99.90;;;;;;5039790;28;20268;-70
2023/09/19 07:10:59;;;;;;;9.20;3.83;;;16.70;99.90;;;;;;5040426;28;20593;-73
2023/09/19 07:13:25;;;;;;;9.97;3.93;;;16.70;99.90;;;;;;5034330;28;20637;-73
2023/09/19 07:15:51;;;;;;;8.30;3.43;;;16.80;99.90;;;;;;5034800;28;20271;-73
2023/09/19 07:18:17;;;;;;;9.53;4.10;;;16.90;99.90;;;;;;5034320;28;20558;-73
2023/09/19 07:20:50;;;;;;;6.60;3.30;;;17.00;99.90;;;;;;5035006;28;20180;-73
2023/09/19 07:23:21;;;;;;;11.67;4.07;;;17.10;99.90;;;;;;5037662;28;20760;-73
2023/09/19 07:25:48;;;;;;;9.77;4.50;;;17.20;99.90;;;;;;5034857;28;20176;-72
2023/09/19 07:28:14;;;;;;;10.13;4.03;;;17.10;99.90;;;;;;5034466;28;20187;-70
2023/09/19 07:30:41;;;;;;;11.37;4.30;;;17.20;99.90;;;;;;5034474;28;20175;-73
2023/09/19 07:33:07;;;;;;;6.37;3.40;;;17.20;99.90;;;;;;5034494;28;20286;-72
2023/09/19 07:35:33;;;;;;;7.13;3.83;;;17.20;99.90;;;;;;5034572;28;20701;-70
2023/09/19 07:38:01;;;;;;;5.80;3.27;;;17.30;99.90;;;;;;5038187;28;20182;-71
2023/09/19 07:40:28;;;;;;;8.73;4.73;;;17.40;99.90;;;;;;5034123;28;20215;-71
2023/09/19 07:43:01;;;;;;;8.23;3.53;;;17.60;99.90;;;;;;5033997;28;20211;-73
2023/09/19 07:45:30;;;;;;;7.13;3.53;;;17.80;99.90;;;;;;5032382;28;20211;-72
2023/09/19 07:47:56;;;;;;;7.67;3.30;;;18.00;99.90;;;;;;5034295;28;20184;-73
2023/09/19 07:50:21;;;;;;;8.30;4.07;;;18.20;99.90;;;;;;5033823;28;20226;-73
2023/09/19 07:52:50;;;;;;;13.23;3.83;;;18.40;99.90;;;;;;5033930;28;20203;-71
2023/09/19 07:55:16;;;;;;;10.27;3.80;;;18.70;99.90;;;;;;5037655;28;20187;-73
2023/09/19 07:57:43;;;;;;;6.50;3.40;;;18.90;99.90;;;;;;5033856;28;20195;-73
2023/09/19 08:00:10;;;;;;;5.93;3.20;;;19.10;99.90;;;;;;5032303;28;20190;-72
2023/09/19 08:02:38;;;;;;;8.13;3.60;;;19.30;99.90;;;;;;5033858;28;20191;-72
2023/09/19 08:05:06;;;;;;;6.83;3.60;;;19.30;99.90;;;;;;5033787;28;20574;-72
2023/09/19 08:07:32;;;;;;;9.60;4.17;;;19.30;99.90;;;;;;5033571;28;20516;-73
2023/09/19 08:09:58;;;;;;;6.17;3.50;;;19.10;99.90;;;;;;5033640;28;20187;-72
2023/09/19 08:12:24;;;;;;;11.83;3.70;;;19.20;99.90;;;;;;5031250;28;20191;-74
2023/09/19 08:14:50;;;;;;;7.77;3.27;;;19.30;99.90;;;;;;5035447;28;20556;-73
2023/09/19 08:17:16;;;;;;;6.17;2.73;;;19.30;99.90;;;;;;5033418;28;20182;-73
2023/09/19 08:19:44;;;;;;;8.18;3.72;;;19.40;99.90;;;;;;5033421;28;20186;-74
2023/09/19 08:22:10;;;;;;;6.80;3.43;;;19.60;99.90;;;;;;5033571;28;20277;-73
2023/09/19 08:24:36;;;;;;;7.37;4.37;;;20.00;99.90;;;;;;5040512;28;20203;-73
2023/09/19 08:27:04;;;;;;;5.72;3.30;;;20.30;99.90;;;;;;5041631;28;20175;-73
2023/09/19 08:29:31;;;;;;;8.07;4.07;;;20.50;99.90;;;;;;5025098;28;20172;-73
2023/09/19 08:31:57;;;;;;;12.00;4.07;;;20.60;99.90;;;;;;5033412;28;20695;-73
2023/09/19 08:34:26;;;;;;;11.27;3.75;;;20.50;99.90;;;;;;5033290;28;20257;-73
2023/09/19 08:36:56;;;;;;;6.70;3.22;;;20.50;99.90;;;;;;5033414;28;20182;-71
2023/09/19 08:39:22;;;;;;;7.88;3.28;;;20.50;99.90;;;;;;5031799;28;20192;-73
2023/09/19 08:41:48;;;;;;;8.38;3.33;;;20.50;99.90;;;;;;5033085;28;20701;-72
2023/09/19 08:44:14;;;;;;;6.25;3.63;;;20.50;99.90;;;;;;5032933;28;20215;-73
2023/09/19 08:46:42;;;;;;;6.68;3.47;;;20.40;99.90;;;;;;5033285;28;20218;-70
2023/09/19 08:49:30;;;;;;;7.25;3.50;;;20.40;99.90;;;;;;5032875;28;20175;-71
2023/09/19 08:52:10;;;;;;;8.30;4.28;;;20.50;99.90;;;;;;5033947;28;20210;-72
2023/09/19 08:54:40;;;;;;;6.88;3.83;;;20.60;99.90;;;;;;5032155;28;20172;-72
2023/09/19 08:57:11;;;;;;;6.47;3.53;;;20.70;99.90;;;;;;5033218;28;20639;-71
2023/09/19 08:59:41;;;;;;;5.93;4.05;;;20.70;99.90;;;;;;5031407;28;20266;-71
2023/09/19 09:02:20;;;;;;;12.43;4.43;;;20.70;99.90;;;;;;5032690;28;20199;-70
2023/09/19 09:04:48;;;;;;;7.38;4.03;;;20.70;99.90;;;;;;5032883;28;20199;-71
2023/09/19 09:07:16;;;;;;;7.75;3.80;;;20.80;99.90;;;;;;5032727;28;20222;-71
2023/09/19 09:09:42;;;;;;;6.15;3.30;;;20.90;99.90;;;;;;5035665;28;20233;-73
2023/09/19 09:12:15;;;;;;;8.75;4.15;;;21.00;99.90;;;;;;5032578;28;20187;-72
2023/09/19 09:14:45;;;;;;;9.10;5.63;;;21.00;99.90;;;;;;5032609;28;20167;-72
2023/09/19 09:17:11;;;;;;;6.03;3.92;;;21.00;99.90;;;;;;5032520;28;20167;-71
2023/09/19 09:19:37;;;;;;;5.43;3.40;;;21.00;99.90;;;;;;5032197;28;20175;-73
2023/09/19 09:22:10;;;;;;;8.23;6.32;;;21.30;99.90;;;;;;5032473;28;20689;-74
2023/09/19 09:24:39;;;;;;;4.97;3.05;;;21.70;99.90;;;;;;5031702;28;20261;-75
2023/09/19 09:27:10;;;;;;;7.63;2.90;;;21.80;99.90;;;;;;5032502;28;20176;-72
2023/09/19 09:29:51;;;;;;;4.63;3.00;;;21.70;99.90;;;;;;5024353;28;20659;-73
2023/09/19 09:32:23;;;;;;;5.43;3.58;;;21.60;99.90;;;;;;5032090;28;20238;-70
2023/09/19 09:34:51;;;;;;;5.45;3.00;;;21.70;99.90;;;;;;5032423;28;20214;-71
2023/09/19 09:37:21;;;;;;;7.70;3.50;;;22.00;99.90;;;;;;5032296;28;20187;-73
2023/09/19 09:39:56;;;;;;;5.82;3.28;;;22.00;99.90;;;;;;5032184;28;20183;-71
2023/09/19 09:42:35;;;;;;;6.53;3.58;;;22.10;99.90;;;;;;5031824;28;20211;-72
2023/09/19 09:45:19;;;;;;;6.63;3.15;;;22.30;99.90;;;;;;5032046;28;20202;-73
2023/09/19 09:47:57;;;;;;;7.45;3.38;;;22.10;99.90;;;;;;5032008;28;20179;-72
2023/09/19 09:51:01;;;;;;;5.43;3.35;;;22.30;99.90;;;;;;5031755;28;20415;-72
2023/09/19 09:53:28;;;;;;;8.20;3.38;;;22.40;99.90;;;;;;5031867;28;20282;-71
2023/09/19 09:56:11;;;;;;;13.68;4.68;;;22.20;99.90;;;;;;5030661;28;20879;-73
2023/09/19 09:58:49;;;;;;;27.02;5.05;;;22.30;99.90;;;;;;5031801;28;20214;-71
2023/09/19 10:01:15;;;;;;;6.18;3.50;;;22.50;99.90;;;;;;5031514;28;20223;-73
2023/09/19 10:03:48;;;;;;;6.93;3.15;;;22.30;99.90;;;;;;5031587;28;20199;-75
2023/09/19 10:06:25;;;;;;;9.13;3.70;;;22.30;99.90;;;;;;5031854;28;20186;-72
2023/09/19 10:11:43;;;;;;;5.55;3.20;;;22.00;99.90;;;;;;5039772;28;20553;-75
2023/09/19 10:14:11;;;;;;;6.60;3.63;;;22.10;99.90;;;;;;5034275;28;20183;-72
2023/09/19 10:16:45;;;;;;;6.75;3.83;;;22.20;99.90;;;;;;5031560;28;20650;-72
2023/09/19 10:19:46;;;;;;;8.95;3.40;;;22.10;99.90;;;;;;5031175;28;20179;-72
2023/09/19 10:22:20;;;;;;;9.43;3.55;;;22.10;99.90;;;;;;5008623;28;20517;-73
2023/09/19 10:24:47;;;;;;;5.78;3.17;;;21.80;99.90;;;;;;5031446;28;20203;-72
2023/09/19 10:27:17;;;;;;;7.05;3.33;;;21.80;99.90;;;;;;5031129;28;20172;-73
2023/09/19 10:29:47;;;;;;;9.40;3.67;;;22.00;99.90;;;;;;5034720;28;20249;-73
2023/09/19 10:32:18;;;;;;;6.25;3.40;;;22.00;99.90;;;;;;5031149;28;20206;-73
2023/09/19 10:34:46;;;;;;;6.88;2.90;;;22.00;99.90;;;;;;5031295;28;20241;-72
2023/09/19 10:37:12;;;;;;;12.68;3.47;;;22.00;99.90;;;;;;5031153;28;20599;-73
2023/09/19 10:39:40;;;;;;;8.88;2.67;;;21.80;99.90;;;;;;5030633;28;20175;-72
2023/09/19 10:42:08;;;;;;;4.72;3.20;;;21.80;99.90;;;;;;5029755;28;20199;-71
2023/09/19 10:44:42;;;;;;;5.32;2.80;;;21.80;99.90;;;;;;5030826;28;20202;-71
2023/09/19 10:47:10;;;;;;;4.55;2.90;;;22.00;99.90;;;;;;5029853;28;20257;-69
2023/09/19 10:49:43;;;;;;;3.95;2.65;;;21.90;99.90;;;;;;5030676;28;20183;-72
2023/09/19 10:52:13;;;;;;;8.10;3.92;;;21.70;99.90;;;;;;5031015;28;20211;-72
2023/09/19 10:54:44;;;;;;;5.95;3.25;;;21.50;99.90;;;;;;5030906;28;20262;-73
2023/09/19 10:57:10;;;;;;;7.05;3.88;;;21.40;99.90;;;;;;5030020;28;20175;-72
2023/09/19 10:59:37;;;;;;;7.05;3.70;;;21.30;99.90;;;;;;5030500;28;20556;-73
2023/09/19 11:02:17;;;;;;;7.20;3.83;;;21.30;99.90;;;;;;5030918;28;20580;-71
2023/09/19 11:04:45;;;;;;;5.55;3.03;;;21.40;99.90;;;;;;5031226;28;20219;-72
2023/09/19 11:07:15;;;;;;;4.68;3.05;;;21.40;99.90;;;;;;5030907;28;20178;-73
2023/09/19 11:09:54;;;;;;;7.03;5.38;;;21.70;99.90;;;;;;5029300;28;20202;-74
2023/09/19 11:12:37;;;;;;;9.23;8.23;;;21.80;99.90;;;;;;5030952;28;20199;-75
2023/09/19 11:15:08;;;;;;;6.35;3.47;;;21.80;99.90;;;;;;5031018;28;20237;-72
2023/09/19 11:17:40;;;;;;;5.28;3.13;;;21.80;99.90;;;;;;5030764;28;20183;-72
2023/09/19 11:20:15;;;;;;;5.97;4.95;;;21.90;99.90;;;;;;5031803;28;20309;-74
2023/09/19 11:22:50;;;;;;;5.80;4.70;;;21.90;99.90;;;;;;5029735;28;20617;-73
2023/09/19 11:25:30;;;;;;;4.35;3.90;;;21.90;99.90;;;;;;5030755;28;20222;-72
2023/09/19 11:28:08;;;;;;;7.75;4.50;;;22.00;99.90;;;;;;5030774;28;20179;-73
2023/09/19 11:30:38;;;;;;;4.57;3.85;;;21.90;99.90;;;;;;5030414;28;20175;-73
2023/09/19 11:33:28;;;;;;;7.43;3.47;;;21.80;99.90;;;;;;5030655;28;20299;-72
2023/09/19 11:36:05;;;;;;;8.32;2.83;;;22.00;99.90;;;;;;5029590;28;20633;-71
2023/09/19 11:38:52;;;;;;;7.45;2.75;;;22.10;99.90;;;;;;5031095;28;20290;-71
2023/09/19 11:43:54;;;;;;;5.07;3.08;;;22.50;99.90;;;;;;5030487;28;20216;-72
2023/09/19 11:46:24;;;;;;;6.18;3.30;;;22.60;99.90;;;;;;5028733;28;20301;-71
2023/09/19 11:48:50;;;;;;;8.38;3.63;;;22.50;99.90;;;;;;5034401;28;20179;-72
2023/09/19 11:51:26;;;;;;;4.25;2.92;;;22.70;99.90;;;;;;5033917;28;20195;-73
2023/09/19 11:53:52;;;;;;;6.35;2.60;;;22.90;99.90;;;;;;5034173;28;20213;-75
2023/09/19 11:56:21;;;;;;;6.38;2.75;;;23.10;99.90;;;;;;5033832;28;20179;-72
2023/09/19 11:58:54;;;;;;;5.78;3.40;;;23.30;99.90;;;;;;5034024;28;20183;-73
2023/09/19 12:01:24;;;;;;;3.90;2.70;;;23.30;99.90;;;;;;5032388;28;20253;-72
2023/09/19 12:03:53;;;;;;;8.32;3.47;;;23.30;99.90;;;;;;5036259;28;20211;-73
2023/09/19 12:06:21;;;;;;;4.97;3.80;;;23.40;99.90;;;;;;5034591;28;20176;-71
2023/09/19 12:08:48;;;;;;;5.95;3.20;;;23.30;99.90;;;;;;5033118;28;20175;-72
2023/09/19 12:11:15;;;;;;;3.85;2.45;;;23.30;99.90;;;;;;5047495;28;20205;-73
2023/09/19 12:13:44;;;;;;;4.88;2.90;;;23.10;99.90;;;;;;5026343;28;20198;-72
2023/09/19 12:16:17;;;;;;;4.15;3.13;;;22.90;99.90;;;;;;5034407;28;20299;-73
2023/09/19 12:18:47;;;;;;;7.90;3.03;;;22.80;99.90;;;;;;5035197;28;20183;-72
2023/09/19 12:21:31;;;;;;;5.88;2.70;;;22.90;99.90;;;;;;5034173;28;20202;-72
2023/09/19 12:24:05;;;;;;;6.53;3.25;;;23.00;99.90;;;;;;5033869;28;20234;-72
2023/09/19 12:26:40;;;;;;;6.20;2.85;;;23.10;99.90;;;;;;5034224;28;20542;-73
2023/09/19 12:29:20;;;;;;;4.63;2.55;;;23.10;99.90;;;;;;5034815;28;20179;-73
2023/09/19 12:32:03;;;;;;;5.72;2.75;;;23.10;99.90;;;;;;5031800;28;20202;-72
2023/09/19 12:34:34;;;;;;;8.27;3.67;;;23.10;99.90;;;;;;5033366;28;20274;-73
2023/09/19 12:37:21;;;;;;;4.80;3.28;;;23.10;99.90;;;;;;5033493;28;20180;-71
2023/09/19 12:39:51;;;;;;;8.27;3.10;;;23.00;99.90;;;;;;5037432;28;20182;-74
2023/09/19 12:42:19;;;;;;;8.13;3.30;;;23.10;99.90;;;;;;5033855;28;20713;-72
2023/09/19 12:44:55;;;;;;;4.13;2.80;;;23.20;99.90;;;;;;5025117;28;20192;-71
2023/09/19 12:47:22;;;;;;;5.38;2.60;;;23.30;99.90;;;;;;5033015;28;20175;-75
2023/09/19 12:50:18;;;;;;;2.55;2.30;;;23.20;99.90;;;;;;5033665;28;20640;-72
2023/09/19 12:52:51;;;;;;;5.03;3.22;;;22.90;99.90;;;;;;5032823;28;20571;-72
2023/09/19 12:55:21;;;;;;;7.88;3.15;;;22.80;99.90;;;;;;5033030;28;20542;-73
2023/09/19 12:58:11;;;;;;;6.15;2.47;;;22.90;99.90;;;;;;5032485;28;20183;-73
2023/09/19 13:00:44;;;;;;;3.92;2.60;;;23.00;99.90;;;;;;5033556;28;20183;-73
2023/09/19 13:03:15;;;;;;;3.70;2.30;;;23.20;99.90;;;;;;5032736;28;20673;-73
2023/09/19 13:06:00;;;;;;;4.72;3.38;;;23.40;99.90;;;;;;5031343;28;20184;-72